Time;durP1;ratioP1;P1;durP2;ratioP2;P2;SDS_P1;SDS_P2;PMS_P1;PMS_P2;Temp;Humidity;BMP_temperature;BMP_pressure;BME280_temperature;BME280_humidity;BME280_pressure;Samples;Min_cycle;Max_cycle;Signal;HPM_P1;HPM_P2
2023/08/04 00:00:00;;;;;;;;;7.75;7.75;;;;;;;;5052123;28;8900;-88
2023/08/04 00:02:27;;;;;;;;;6.75;5.00;;;;;;;;5060173;28;8830;-87
2023/08/04 00:04:56;;;;;;;;;5.00;5.00;;;;;;;;5042659;28;8885;-86
2023/08/04 00:07:23;;;;;;;;;7.00;7.00;;;;;;;;5049869;28;8889;-89
2023/08/04 00:09:51;;;;;;;;;6.75;6.75;;;;;;;;5050261;28;8865;-88
2023/08/04 00:12:18;;;;;;;;;8.50;8.50;;;;;;;;5049600;28;8871;-87
2023/08/04 00:14:48;;;;;;;;;7.75;7.75;;;;;;;;5049853;28;9632;-88
2023/08/04 00:17:16;;;;;;;;;6.25;5.25;;;;;;;;5050998;28;8859;-86
2023/08/04 00:19:43;;;;;;;;;5.00;5.00;;;;;;;;5051937;28;8977;-88
2023/08/04 00:22:12;;;;;;;;;6.50;6.50;;;;;;;;5053256;28;8961;-89
2023/08/04 00:24:39;;;;;;;;;7.00;7.00;;;;;;;;5063396;28;9008;-88
2023/08/04 00:27:06;;;;;;;;;5.00;5.00;;;;;;;;5060167;28;8875;-87
2023/08/04 00:29:34;;;;;;;;;8.50;7.25;;;;;;;;5049872;28;8867;-86
2023/08/04 00:32:01;;;;;;;;;9.50;7.25;;;;;;;;5050156;28;8908;-84
2023/08/04 00:34:28;;;;;;;;;9.50;7.75;;;;;;;;5051789;28;9757;-85
2023/08/04 00:36:55;;;;;;;;;8.75;8.75;;;;;;;;5055274;28;9684;-83
2023/08/04 00:39:24;;;;;;;;;9.00;9.00;;;;;;;;5055916;28;8900;-84
2023/08/04 00:41:51;;;;;;;;;8.00;8.00;;;;;;;;5049168;28;8861;-88
2023/08/04 00:44:18;;;;;;;;;8.25;6.75;;;;;;;;5049599;28;9779;-87
2023/08/04 00:46:46;;;;;;;;;9.25;7.75;;;;;;;;5051438;28;8917;-86
2023/08/04 00:49:13;;;;;;;;;8.75;8.75;;;;;;;;5059062;28;8875;-87
2023/08/04 00:51:41;;;;;;;;;10.75;8.00;;;;;;;;5051202;28;8844;-88
2023/08/04 00:54:08;;;;;;;;;7.75;7.75;;;;;;;;5058714;28;8877;-86
2023/08/04 00:56:38;;;;;;;;;8.00;8.00;;;;;;;;5049786;28;8885;-84
2023/08/04 00:59:07;;;;;;;;;10.00;8.25;;;;;;;;5049181;28;8855;-84
2023/08/04 01:01:34;;;;;;;;;9.00;9.00;;;;;;;;5048671;28;8918;-82
2023/08/04 01:04:02;;;;;;;;;11.75;10.50;;;;;;;;5049773;28;8873;-82
2023/08/04 01:06:37;;;;;;;;;14.00;10.75;;;;;;;;5048668;28;8867;-83
2023/08/04 01:09:10;;;;;;;;;6.25;6.25;;;;;;;;5048933;28;8932;-81
2023/08/04 01:11:47;;;;;;;;;11.75;10.00;;;;;;;;5037168;28;8970;-82
2023/08/04 01:14:16;;;;;;;;;7.75;7.75;;;;;;;;5048486;28;8835;-84
2023/08/04 01:16:43;;;;;;;;;9.75;9.75;;;;;;;;5056676;28;8890;-83
2023/08/04 01:19:10;;;;;;;;;6.75;6.75;;;;;;;;5051951;28;8979;-82
2023/08/04 01:21:42;;;;;;;;;10.00;10.00;;;;;;;;5048173;28;8863;-82
2023/08/04 01:24:09;;;;;;;;;8.50;8.50;;;;;;;;5048769;28;9515;-87
2023/08/04 01:26:44;;;;;;;;;10.25;8.75;;;;;;;;5048421;28;8882;-87
2023/08/04 01:29:11;;;;;;;;;7.75;7.75;;;;;;;;5048635;28;8990;-85
2023/08/04 01:31:39;;;;;;;;;7.00;7.00;;;;;;;;5049565;28;8795;-89
2023/08/04 01:34:06;;;;;;;;;6.50;6.50;;;;;;;;5048828;28;8863;-88
2023/08/04 01:36:34;;;;;;;;;5.00;5.00;;;;;;;;5049229;28;8928;-83
2023/08/04 01:39:02;;;;;;;;;8.50;6.75;;;;;;;;5053389;28;8858;-88
2023/08/04 01:41:30;;;;;;;;;6.00;6.00;;;;;;;;5056091;28;8985;-87
2023/08/04 01:43:57;;;;;;;;;7.75;7.50;;;;;;;;5060686;28;8855;-88
2023/08/04 01:46:24;;;;;;;;;8.25;8.25;;;;;;;;5049179;28;8882;-88
2023/08/04 01:48:51;;;;;;;;;10.75;8.00;;;;;;;;5048032;28;8851;-88
2023/08/04 01:51:18;;;;;;;;;8.50;7.00;;;;;;;;5049249;28;8889;-88
2023/08/04 01:53:46;;;;;;;;;8.25;8.25;;;;;;;;5047704;28;8860;-89
2023/08/04 01:56:14;;;;;;;;;8.75;6.75;;;;;;;;5049099;28;8893;-88
2023/08/04 01:58:41;;;;;;;;;6.75;6.75;;;;;;;;5049069;28;8870;-87
2023/08/04 02:01:08;;;;;;;;;8.50;8.50;;;;;;;;5049393;28;8788;-83
2023/08/04 02:03:36;;;;;;;;;7.75;7.75;;;;;;;;5051934;28;8859;-88
2023/08/04 02:06:04;;;;;;;;;10.00;8.50;;;;;;;;5051477;28;8855;-87
2023/08/04 02:08:31;;;;;;;;;7.00;7.00;;;;;;;;5049529;28;8852;-87
2023/08/04 02:10:58;;;;;;;;;6.75;6.75;;;;;;;;5059405;28;8859;-88
2023/08/04 02:13:27;;;;;;;;;6.50;6.00;;;;;;;;5049070;28;8877;-87
2023/08/04 02:15:54;;;;;;;;;6.50;5.25;;;;;;;;5049723;28;9474;-85
2023/08/04 02:18:21;;;;;;;;;7.50;7.25;;;;;;;;5051466;28;8879;-83
2023/08/04 02:20:48;;;;;;;;;12.00;8.75;;;;;;;;5060712;28;8868;-86
2023/08/04 02:23:15;;;;;;;;;5.00;5.00;;;;;;;;5048777;28;8847;-85
2023/08/04 02:25:43;;;;;;;;;6.50;6.50;;;;;;;;5060870;28;8876;-85
2023/08/04 02:28:10;;;;;;;;;8.00;5.00;;;;;;;;5048161;28;8975;-86
2023/08/04 02:30:38;;;;;;;;;6.00;6.00;;;;;;;;5047462;28;8760;-84
2023/08/04 02:33:05;;;;;;;;;8.00;8.00;;;;;;;;5048193;28;8847;-84
2023/08/04 02:35:33;;;;;;;;;6.25;6.25;;;;;;;;5048228;28;8997;-86
2023/08/04 02:38:00;;;;;;;;;6.75;6.75;;;;;;;;5052267;28;8851;-83
2023/08/04 02:40:27;;;;;;;;;7.00;7.00;;;;;;;;5052748;28;8875;-83
2023/08/04 02:42:54;;;;;;;;;6.50;6.50;;;;;;;;5052212;28;9002;-83
2023/08/04 02:45:21;;;;;;;;;6.00;6.00;;;;;;;;5054849;28;8865;-82
2023/08/04 02:47:50;;;;;;;;;6.50;6.50;;;;;;;;5071254;28;8878;-82
2023/08/04 02:50:17;;;;;;;;;5.00;5.00;;;;;;;;5053366;28;8877;-85
2023/08/04 02:52:44;;;;;;;;;8.00;6.50;;;;;;;;5040705;28;8865;-82
2023/08/04 02:55:12;;;;;;;;;7.75;6.25;;;;;;;;5049269;28;8871;-83
2023/08/04 02:57:40;;;;;;;;;5.75;5.75;;;;;;;;5050800;28;8839;-81
2023/08/04 03:00:08;;;;;;;;;6.50;6.50;;;;;;;;5062757;28;8986;-83
2023/08/04 03:02:35;;;;;;;;;7.00;7.00;;;;;;;;5050649;28;8843;-84
2023/08/04 03:05:04;;;;;;;;;6.75;6.75;;;;;;;;5056335;28;8844;-81
2023/08/04 03:07:32;;;;;;;;;5.50;5.50;;;;;;;;5057954;28;9001;-81
2023/08/04 03:09:59;;;;;;;;;6.00;6.00;;;;;;;;5049657;28;8990;-84
2023/08/04 03:12:27;;;;;;;;;4.00;4.00;;;;;;;;5050702;28;8843;-85
2023/08/04 03:14:54;;;;;;;;;4.50;4.50;;;;;;;;5052546;28;9225;-88
2023/08/04 03:17:20;;;;;;;;;5.50;5.50;;;;;;;;5064161;28;8864;-87
2023/08/04 03:19:47;;;;;;;;;7.50;6.25;;;;;;;;5051624;28;8989;-90
2023/08/04 03:22:16;;;;;;;;;5.00;5.00;;;;;;;;5051654;28;8859;-88
2023/08/04 03:24:43;;;;;;;;;6.25;6.25;;;;;;;;5040144;28;8859;-90
2023/08/04 03:27:10;;;;;;;;;6.75;6.75;;;;;;;;5051387;28;8871;-89
2023/08/04 03:29:37;;;;;;;;;6.75;6.75;;;;;;;;5051436;28;8855;-87
2023/08/04 03:32:05;;;;;;;;;5.25;3.00;;;;;;;;5050778;28;8829;-80
2023/08/04 03:34:33;;;;;;;;;5.00;5.00;;;;;;;;5051926;28;8879;-88
2023/08/04 03:37:00;;;;;;;;;7.50;6.25;;;;;;;;5051406;28;8843;-89
2023/08/04 03:39:28;;;;;;;;;3.50;2.50;;;;;;;;5050617;28;8982;-87
2023/08/04 03:41:56;;;;;;;;;6.00;6.00;;;;;;;;5051281;28;8843;-87
2023/08/04 03:44:23;;;;;;;;;3.00;3.00;;;;;;;;5052943;28;8859;-88
2023/08/04 03:46:50;;;;;;;;;5.75;5.75;;;;;;;;5053496;28;8869;-89
2023/08/04 03:49:17;;;;;;;;;6.50;6.50;;;;;;;;5051516;28;8985;-84
2023/08/04 03:51:44;;;;;;;;;5.50;5.50;;;;;;;;5052037;28;8885;-88
2023/08/04 03:54:12;;;;;;;;;10.25;8.00;;;;;;;;5050901;28;8867;-85
2023/08/04 03:56:40;;;;;;;;;7.00;7.00;;;;;;;;5048364;28;8840;-81
2023/08/04 03:59:08;;;;;;;;;8.00;8.00;;;;;;;;5049483;28;8873;-80
2023/08/04 04:01:35;;;;;;;;;11.25;11.25;;;;;;;;5048843;28;8811;-80
2023/08/04 04:04:02;;;;;;;;;12.75;11.50;;;;;;;;5049865;28;8855;-83
2023/08/04 04:06:29;;;;;;;;;12.25;10.25;;;;;;;;5036313;28;8877;-80
2023/08/04 04:08:57;;;;;;;;;11.25;11.25;;;;;;;;5049902;28;8859;-84
2023/08/04 04:11:24;;;;;;;;;12.25;12.00;;;;;;;;5049489;28;8973;-85
2023/08/04 04:13:53;;;;;;;;;13.00;13.00;;;;;;;;5049860;28;8863;-84
2023/08/04 04:16:20;;;;;;;;;13.00;13.00;;;;;;;;5060848;28;8925;-89
2023/08/04 04:18:47;;;;;;;;;13.75;11.75;;;;;;;;5049837;28;8859;-85
2023/08/04 04:21:15;;;;;;;;;13.00;12.50;;;;;;;;5049004;28;8983;-86
2023/08/04 04:23:42;;;;;;;;;12.25;11.00;;;;;;;;5051076;28;8871;-85
2023/08/04 04:26:09;;;;;;;;;12.00;12.00;;;;;;;;5050219;28;8859;-88
2023/08/04 04:28:36;;;;;;;;;11.75;11.75;;;;;;;;5049231;28;8873;-79
2023/08/04 04:31:05;;;;;;;;;12.00;10.00;;;;;;;;5049014;28;8807;-87
2023/08/04 04:33:32;;;;;;;;;12.25;12.25;;;;;;;;5049470;28;8863;-85
2023/08/04 04:35:59;;;;;;;;;12.25;10.75;;;;;;;;5059220;28;8863;-81
2023/08/04 04:38:28;;;;;;;;;10.25;10.25;;;;;;;;5048676;28;8874;-85
2023/08/04 04:40:58;;;;;;;;;11.75;11.25;;;;;;;;5048764;28;8871;-84
2023/08/04 04:43:26;;;;;;;;;12.25;10.50;;;;;;;;5049033;28;8863;-79
2023/08/04 04:45:53;;;;;;;;;7.75;7.75;;;;;;;;5049224;28;8863;-82
2023/08/04 04:48:24;;;;;;;;;12.50;12.50;;;;;;;;5048294;28;8839;-81
2023/08/04 04:50:51;;;;;;;;;9.25;9.25;;;;;;;;5048447;28;8881;-83
2023/08/04 04:53:18;;;;;;;;;10.00;9.50;;;;;;;;5048599;28;8964;-82
2023/08/04 04:55:46;;;;;;;;;7.50;7.50;;;;;;;;5048091;28;8851;-81
2023/08/04 04:58:13;;;;;;;;;11.00;11.00;;;;;;;;5048647;28;8851;-82
2023/08/04 05:00:41;;;;;;;;;9.75;9.75;;;;;;;;5048970;28;8791;-82
2023/08/04 05:03:10;;;;;;;;;7.75;7.75;;;;;;;;5048852;28;8859;-83
2023/08/04 05:05:39;;;;;;;;;11.75;11.25;;;;;;;;5048440;28;8862;-89
2023/08/04 05:08:06;;;;;;;;;12.25;10.25;;;;;;;;5051063;28;8851;-81
2023/08/04 05:10:34;;;;;;;;;13.00;11.25;;;;;;;;5060494;28;8871;-90
2023/08/04 05:13:01;;;;;;;;;8.75;8.75;;;;;;;;5048426;28;8839;-90
2023/08/04 05:15:28;;;;;;;;;13.25;11.75;;;;;;;;5059948;28;8857;-86
2023/08/04 05:17:55;;;;;;;;;14.50;13.25;;;;;;;;5049285;28;8887;-90
2023/08/04 05:20:23;;;;;;;;;9.75;9.75;;;;;;;;5060054;28;8886;-88
2023/08/04 05:22:51;;;;;;;;;10.00;10.00;;;;;;;;5060807;28;8918;-91
2023/08/04 05:25:18;;;;;;;;;10.75;10.75;;;;;;;;5049863;28;8891;-91
2023/08/04 05:27:50;;;;;;;;;11.75;10.50;;;;;;;;5049427;28;8958;-90
2023/08/04 05:30:17;;;;;;;;;12.00;12.00;;;;;;;;5049226;28;8855;-89
2023/08/04 05:32:45;;;;;;;;;9.75;9.75;;;;;;;;5050952;28;8891;-90
2023/08/04 05:35:12;;;;;;;;;12.00;12.00;;;;;;;;5050319;28;8867;-88
2023/08/04 05:37:39;;;;;;;;;12.25;12.25;;;;;;;;5048616;28;8869;-86
2023/08/04 05:40:09;;;;;;;;;14.50;12.75;;;;;;;;5048671;28;9030;-90
2023/08/04 05:42:37;;;;;;;;;10.75;10.75;;;;;;;;5040860;28;8867;-85
2023/08/04 05:45:04;;;;;;;;;12.50;11.75;;;;;;;;5047792;28;8843;-88
2023/08/04 05:47:32;;;;;;;;;11.75;11.75;;;;;;;;5047712;28;8994;-82
2023/08/04 05:49:59;;;;;;;;;13.50;12.50;;;;;;;;5049425;28;8977;-82
2023/08/04 05:52:26;;;;;;;;;10.00;10.00;;;;;;;;5055033;28;8883;-88
2023/08/04 05:54:54;;;;;;;;;10.50;10.50;;;;;;;;5049188;28;8839;-81
2023/08/04 05:57:23;;;;;;;;;15.50;14.00;;;;;;;;5053362;28;8973;-83
2023/08/04 05:59:50;;;;;;;;;13.25;12.00;;;;;;;;5047025;28;8858;-80
2023/08/04 06:02:17;;;;;;;;;8.50;8.50;;;;;;;;5046740;28;8811;-86
2023/08/04 06:04:44;;;;;;;;;11.25;11.25;;;;;;;;5056593;28;8870;-89
2023/08/04 06:07:12;;;;;;;;;13.75;13.00;;;;;;;;5058952;28;8869;-87
2023/08/04 06:09:39;;;;;;;;;11.75;11.00;;;;;;;;5048833;28;8847;-81
2023/08/04 06:12:07;;;;;;;;;12.00;12.00;;;;;;;;5049407;28;8886;-87
2023/08/04 06:14:36;;;;;;;;;9.00;9.00;;;;;;;;5051963;28;8851;-86
2023/08/04 06:17:04;;;;;;;;;11.25;11.25;;;;;;;;5052161;28;8874;-84
2023/08/04 06:19:31;;;;;;;;;9.50;9.25;;;;;;;;5051230;28;8859;-89
2023/08/04 06:21:58;;;;;;;;;9.75;9.75;;;;;;;;5062896;28;8860;-86
2023/08/04 06:24:29;;;;;;;;;14.00;13.00;;;;;;;;5051755;28;8921;-85
2023/08/04 06:26:59;;;;;;;;;16.25;11.50;;;;;;;;5051574;28;8871;-85
2023/08/04 06:29:26;;;;;;;;;12.75;11.75;;;;;;;;5050474;28;9773;-83
2023/08/04 06:31:55;;;;;;;;;11.75;10.50;;;;;;;;5050880;28;8815;-84
2023/08/04 06:34:22;;;;;;;;;10.25;10.25;;;;;;;;5050926;28;8897;-85
2023/08/04 06:36:49;;;;;;;;;10.75;9.25;;;;;;;;5040160;28;8868;-82
2023/08/04 06:39:17;;;;;;;;;10.75;9.50;;;;;;;;5051855;28;8835;-82
2023/08/04 06:41:45;;;;;;;;;10.50;10.50;;;;;;;;5052274;28;9622;-80
2023/08/04 06:44:14;;;;;;;;;10.50;10.50;;;;;;;;5042810;28;8867;-88
2023/08/04 06:46:40;;;;;;;;;11.75;11.75;;;;;;;;5054336;28;8946;-90
2023/08/04 06:49:09;;;;;;;;;9.50;9.50;;;;;;;;5053088;28;9631;-86
2023/08/04 06:51:36;;;;;;;;;7.00;7.00;;;;;;;;5053045;28;8877;-89
2023/08/04 06:54:03;;;;;;;;;10.75;10.75;;;;;;;;5069283;28;8844;-89
2023/08/04 06:56:31;;;;;;;;;9.25;9.25;;;;;;;;5063843;28;8936;-85
2023/08/04 06:58:58;;;;;;;;;12.50;11.00;;;;;;;;5050263;28;9320;-89
2023/08/04 07:01:25;;;;;;;;;9.00;9.00;;;;;;;;5051664;28;8938;-89
2023/08/04 07:03:52;;;;;;;;;11.25;9.75;;;;;;;;5054079;28;8871;-91
2023/08/04 07:06:21;;;;;;;;;13.50;11.25;;;;;;;;5052515;28;8855;-90
2023/08/04 07:08:48;;;;;;;;;11.25;9.25;;;;;;;;5052800;28;8843;-90
2023/08/04 07:11:16;;;;;;;;;10.75;9.75;;;;;;;;5051415;28;8855;-89
2023/08/04 07:13:43;;;;;;;;;12.00;12.00;;;;;;;;5052597;28;8858;-87
2023/08/04 07:16:11;;;;;;;;;11.00;11.00;;;;;;;;5055881;28;9606;-88
2023/08/04 07:18:38;;;;;;;;;10.00;10.00;;;;;;;;5055240;28;8878;-90
2023/08/04 07:21:06;;;;;;;;;10.00;10.00;;;;;;;;5053626;28;8850;-91
2023/08/04 07:23:35;;;;;;;;;10.00;8.75;;;;;;;;5050049;28;8855;-90
2023/08/04 07:26:02;;;;;;;;;10.25;8.75;;;;;;;;5050244;28;8862;-90
2023/08/04 07:28:29;;;;;;;;;11.00;9.75;;;;;;;;5051308;28;8863;-92
2023/08/04 07:30:58;;;;;;;;;9.00;9.00;;;;;;;;5050717;28;8824;-90
2023/08/04 07:33:27;;;;;;;;;12.00;12.00;;;;;;;;5050038;28;8923;-87
2023/08/04 07:35:54;;;;;;;;;8.75;8.50;;;;;;;;5050282;28;8835;-87
2023/08/04 07:38:21;;;;;;;;;10.75;10.75;;;;;;;;5050347;28;8948;-87
2023/08/04 07:40:50;;;;;;;;;10.50;10.50;;;;;;;;5049908;28;8865;-85
2023/08/04 07:43:18;;;;;;;;;8.50;8.50;;;;;;;;5050859;28;8870;-86
2023/08/04 07:45:45;;;;;;;;;10.50;8.75;;;;;;;;5049651;28;8863;-88
2023/08/04 07:48:12;;;;;;;;;9.00;9.00;;;;;;;;5046225;28;8851;-82
2023/08/04 07:50:40;;;;;;;;;9.50;8.25;;;;;;;;5050088;28;8855;-85
2023/08/04 07:53:08;;;;;;;;;8.20;8.20;;;;;;;;5049979;28;8890;-86
2023/08/04 07:55:36;;;;;;;;;8.00;8.00;;;;;;;;5048299;28;8872;-90
2023/08/04 07:58:05;;;;;;;;;9.80;9.80;;;;;;;;5051085;28;8904;-90
2023/08/04 08:00:32;;;;;;;;;7.75;7.25;;;;;;;;5049842;28;8775;-90
2023/08/04 08:02:59;;;;;;;;;8.00;8.00;;;;;;;;5050075;28;9008;-86
2023/08/04 08:05:28;;;;;;;;;8.00;8.00;;;;;;;;5050110;28;8851;-91
2023/08/04 08:07:56;;;;;;;;;6.80;6.80;;;;;;;;5049631;28;8843;-88
2023/08/04 08:10:23;;;;;;;;;8.00;8.00;;;;;;;;5058233;28;8883;-90
2023/08/04 08:12:50;;;;;;;;;6.80;6.80;;;;;;;;5060688;28;8869;-90
2023/08/04 08:15:19;;;;;;;;;5.60;5.60;;;;;;;;5049625;28;8843;-83
2023/08/04 08:17:47;;;;;;;;;6.20;6.20;;;;;;;;5049205;28;8863;-84
2023/08/04 08:20:14;;;;;;;;;6.00;6.00;;;;;;;;5049274;28;8863;-83
2023/08/04 08:22:41;;;;;;;;;5.00;5.00;;;;;;;;5049197;28;8921;-87
2023/08/04 08:25:12;;;;;;;;;9.00;7.60;;;;;;;;5050209;28;8870;-81
2023/08/04 08:27:39;;;;;;;;;7.40;7.40;;;;;;;;5049534;28;8858;-81
2023/08/04 08:30:07;;;;;;;;;6.80;6.80;;;;;;;;5049408;28;8877;-93
2023/08/04 08:32:36;;;;;;;;;8.40;7.60;;;;;;;;5050076;28;8867;-92
2023/08/04 08:35:03;;;;;;;;;9.20;7.40;;;;;;;;5062429;28;8849;-92
2023/08/04 08:37:31;;;;;;;;;7.00;6.40;;;;;;;;5049454;28;9610;-93
2023/08/04 08:39:58;;;;;;;;;8.60;6.20;;;;;;;;5049818;28;8866;-90
2023/08/04 08:42:25;;;;;;;;;5.40;5.40;;;;;;;;5050792;28;8855;-93
2023/08/04 08:44:52;;;;;;;;;5.80;5.80;;;;;;;;5051808;28;8874;-92
2023/08/04 08:47:20;;;;;;;;;7.60;7.60;;;;;;;;5051591;28;8958;-84
2023/08/04 08:49:52;;;;;;;;;7.60;7.60;;;;;;;;5049833;28;8885;-91
2023/08/04 08:52:20;;;;;;;;;9.00;9.00;;;;;;;;5043123;28;8863;-92
2023/08/04 08:54:47;;;;;;;;;9.00;7.80;;;;;;;;5049539;28;8862;-91
2023/08/04 08:57:16;;;;;;;;;6.00;6.00;;;;;;;;5050595;28;8851;-88
2023/08/04 08:59:44;;;;;;;;;5.80;5.80;;;;;;;;5062537;28;8894;-89
2023/08/04 09:02:13;;;;;;;;;6.40;6.40;;;;;;;;5048910;28;8827;-93
2023/08/04 09:04:40;;;;;;;;;5.00;5.00;;;;;;;;5056184;28;8871;-80
2023/08/04 09:07:09;;;;;;;;;5.40;5.40;;;;;;;;5048963;28;8889;-93
2023/08/04 09:09:37;;;;;;;;;5.20;5.20;;;;;;;;5049065;28;8867;-93
2023/08/04 09:12:07;;;;;;;;;6.20;6.20;;;;;;;;5048653;28;8815;-93
2023/08/04 09:14:48;;;;;;;;;6.40;6.40;;;;;;;;5052356;28;8868;-87
2023/08/04 09:17:29;;;;;;;;;5.00;4.40;;;;;;;;5054529;28;8881;-94
2023/08/04 09:19:57;;;;;;;;;3.00;3.00;;;;;;;;5045175;28;8868;-92
2023/08/04 09:22:26;;;;;;;;;5.40;5.40;;;;;;;;5052436;28;8843;-92
2023/08/04 09:24:57;;;;;;;;;5.00;5.00;;;;;;;;5048829;28;8870;-93
2023/08/04 09:27:29;;;;;;;;;3.20;3.20;;;;;;;;5048457;28;8877;-92
2023/08/04 09:30:00;;;;;;;;;4.40;3.80;;;;;;;;5048705;28;8879;-91
2023/08/04 09:32:29;;;;;;;;;4.00;4.00;;;;;;;;5048202;28;8807;-90
2023/08/04 09:35:04;;;;;;;;;5.40;5.40;;;;;;;;5048702;28;8970;-91
2023/08/04 09:37:34;;;;;;;;;2.20;2.20;;;;;;;;5048194;28;8875;-91
2023/08/04 09:40:03;;;;;;;;;4.80;4.80;;;;;;;;5049052;28;8879;-91
2023/08/04 09:42:30;;;;;;;;;6.80;5.00;;;;;;;;5037525;28;9002;-92
2023/08/04 09:44:58;;;;;;;;;4.80;4.80;;;;;;;;5048851;28;8869;-93
2023/08/04 09:47:26;;;;;;;;;5.40;5.40;;;;;;;;5058618;28;8869;-89
2023/08/04 09:49:54;;;;;;;;;4.60;4.60;;;;;;;;5048036;28;8871;-91
2023/08/04 09:52:23;;;;;;;;;4.80;3.00;;;;;;;;5047909;28;8869;-87
2023/08/04 09:54:53;;;;;;;;;2.20;0.20;;;;;;;;5047797;28;8871;-88
2023/08/04 09:57:22;;;;;;;;;6.00;4.40;;;;;;;;5048429;28;8863;-86
2023/08/04 09:59:49;;;;;;;;;3.60;3.60;;;;;;;;5048087;28;8859;-85
2023/08/04 10:02:19;;;;;;;;;3.40;3.40;;;;;;;;5047204;28;8823;-82
2023/08/04 10:04:50;;;;;;;;;3.80;3.80;;;;;;;;5047955;28;8885;-84
2023/08/04 10:07:18;;;;;;;;;2.80;2.80;;;;;;;;5047297;28;8851;-82
2023/08/04 10:09:45;;;;;;;;;3.80;3.80;;;;;;;;5047401;28;8851;-87
2023/08/04 10:12:16;;;;;;;;;4.40;3.00;;;;;;;;5048071;28;8873;-84
2023/08/04 10:14:43;;;;;;;;;2.20;2.20;;;;;;;;5052463;28;8853;-87
2023/08/04 10:17:11;;;;;;;;;4.20;4.20;;;;;;;;5054810;28;8887;-87
2023/08/04 10:19:38;;;;;;;;;2.80;2.80;;;;;;;;5054744;28;8876;-92
2023/08/04 10:22:07;;;;;;;;;2.00;2.00;;;;;;;;5042318;28;8859;-85
2023/08/04 10:24:36;;;;;;;;;4.60;4.60;;;;;;;;5049378;28;8859;-92
2023/08/04 10:27:18;;;;;;;;;2.40;2.40;;;;;;;;5049984;28;8867;-89
2023/08/04 10:29:45;;;;;;;;;2.20;2.20;;;;;;;;5045181;28;8887;-88
2023/08/04 10:32:12;;;;;;;;;3.80;1.80;;;;;;;;5047554;28;8804;-83
2023/08/04 10:34:43;;;;;;;;;2.80;2.80;;;;;;;;5048896;28;8867;-91
2023/08/04 10:37:15;;;;;;;;;2.00;2.00;;;;;;;;5053112;28;9011;-91
2023/08/04 10:39:44;;;;;;;;;2.40;2.40;;;;;;;;5048309;28;8867;-83
2023/08/04 10:42:22;;;;;;;;;2.80;2.80;;;;;;;;5047894;28;9099;-83
2023/08/04 10:44:51;;;;;;;;;3.20;3.20;;;;;;;;5048317;28;8878;-89
2023/08/04 10:47:31;;;;;;;;;2.60;2.60;;;;;;;;5047263;28;8933;-89
2023/08/04 10:49:59;;;;;;;;;2.00;2.00;;;;;;;;5047975;28;8863;-90
2023/08/04 10:52:27;;;;;;;;;2.00;2.00;;;;;;;;5048013;28;8859;-85
2023/08/04 10:54:54;;;;;;;;;1.80;1.80;;;;;;;;5034770;28;8870;-89
2023/08/04 10:57:24;;;;;;;;;3.00;3.00;;;;;;;;5039689;28;9012;-89
2023/08/04 10:59:51;;;;;;;;;2.80;2.80;;;;;;;;5048007;28;9021;-85
2023/08/04 11:02:19;;;;;;;;;3.80;3.80;;;;;;;;5050722;28;8915;-88
2023/08/04 11:04:47;;;;;;;;;2.00;2.00;;;;;;;;5051231;28;8978;-87
2023/08/04 11:07:15;;;;;;;;;2.00;2.00;;;;;;;;5051384;28;8863;-89
2023/08/04 11:09:43;;;;;;;;;2.80;2.80;;;;;;;;5051640;28;8862;-91
2023/08/04 11:12:10;;;;;;;;;3.00;3.00;;;;;;;;5050914;28;8957;-90
2023/08/04 11:14:39;;;;;;;;;2.00;2.00;;;;;;;;5051090;28;8965;-89
2023/08/04 11:17:13;;;;;;;;;2.20;2.20;;;;;;;;5051229;28;8881;-88
2023/08/04 11:19:40;;;;;;;;;2.20;2.20;;;;;;;;5051518;28;8986;-89
2023/08/04 11:22:12;;;;;;;;;3.00;3.00;;;;;;;;5050642;28;8875;-84
2023/08/04 11:24:39;;;;;;;;;1.20;1.20;;;;;;;;5051694;28;8863;-88
2023/08/04 11:27:07;;;;;;;;;2.80;2.80;;;;;;;;5050660;28;8852;-89
2023/08/04 11:29:35;;;;;;;;;2.00;2.00;;;;;;;;5051179;28;8879;-89
2023/08/04 11:32:08;;;;;;;;;3.00;2.60;;;;;;;;5049833;28;8807;-88
2023/08/04 11:34:35;;;;;;;;;3.00;3.00;;;;;;;;5059708;28;9773;-86
2023/08/04 11:37:03;;;;;;;;;2.00;2.00;;;;;;;;5053461;28;8926;-87
2023/08/04 11:39:30;;;;;;;;;1.40;1.40;;;;;;;;5050770;28;8878;-88
2023/08/04 11:41:58;;;;;;;;;1.80;1.80;;;;;;;;5064649;28;8846;-89
2023/08/04 11:44:25;;;;;;;;;2.20;2.20;;;;;;;;5060152;28;8875;-88
2023/08/04 11:46:52;;;;;;;;;1.60;1.60;;;;;;;;5049187;28;8936;-90
2023/08/04 11:49:21;;;;;;;;;1.00;1.00;;;;;;;;5059922;28;8925;-90
2023/08/04 11:51:48;;;;;;;;;2.80;2.80;;;;;;;;5052474;28;8974;-89
2023/08/04 11:54:20;;;;;;;;;3.80;1.20;;;;;;;;5049399;28;8851;-89
2023/08/04 11:56:47;;;;;;;;;2.00;2.00;;;;;;;;5050407;28;8967;-88
2023/08/04 11:59:14;;;;;;;;;2.40;2.40;;;;;;;;5050629;28;8867;-84
2023/08/04 12:01:42;;;;;;;;;3.20;3.20;;;;;;;;5052231;28;8797;-90
2023/08/04 12:04:25;;;;;;;;;2.40;2.40;;;;;;;;5053447;28;8867;-89
2023/08/04 12:06:59;;;;;;;;;4.20;4.20;;;;;;;;5051545;28;8863;-89
2023/08/04 12:09:26;;;;;;;;;3.20;3.20;;;;;;;;5046123;28;8859;-88
2023/08/04 12:11:54;;;;;;;;;3.60;3.60;;;;;;;;5056185;28;9653;-87
2023/08/04 12:14:22;;;;;;;;;5.00;5.00;;;;;;;;5050912;28;8921;-89
2023/08/04 12:16:50;;;;;;;;;5.40;5.40;;;;;;;;5049904;28;8867;-85
2023/08/04 12:19:18;;;;;;;;;4.40;4.40;;;;;;;;5049385;28;8855;-86
2023/08/04 12:21:47;;;;;;;;;3.60;3.60;;;;;;;;5049558;28;8897;-85
2023/08/04 12:24:14;;;;;;;;;3.20;3.20;;;;;;;;5049258;28;8981;-85
2023/08/04 12:26:42;;;;;;;;;6.00;4.00;;;;;;;;5049669;28;9571;-84
2023/08/04 12:29:09;;;;;;;;;2.60;2.60;;;;;;;;5049654;28;9633;-83
2023/08/04 12:31:37;;;;;;;;;3.20;3.20;;;;;;;;5049865;28;8924;-86
2023/08/04 12:34:04;;;;;;;;;6.20;4.40;;;;;;;;5049145;28;8869;-87
2023/08/04 12:36:32;;;;;;;;;4.40;4.40;;;;;;;;5049746;28;9017;-86
2023/08/04 12:39:03;;;;;;;;;7.00;7.00;;;;;;;;5049075;28;8869;-86
2023/08/04 12:41:30;;;;;;;;;5.00;5.00;;;;;;;;5049839;28;8872;-88
2023/08/04 12:43:57;;;;;;;;;5.00;5.00;;;;;;;;5049357;28;8861;-88
2023/08/04 12:46:26;;;;;;;;;5.60;5.60;;;;;;;;5049433;28;8885;-87
2023/08/04 12:48:53;;;;;;;;;6.20;6.20;;;;;;;;5059643;28;8848;-86
2023/08/04 12:51:21;;;;;;;;;5.60;5.00;;;;;;;;5048935;28;8885;-88
2023/08/04 12:53:48;;;;;;;;;6.00;6.00;;;;;;;;5051661;28;8867;-89
2023/08/04 12:56:17;;;;;;;;;6.40;6.40;;;;;;;;5057841;28;8867;-90
2023/08/04 12:58:45;;;;;;;;;5.40;5.40;;;;;;;;5049298;28;8883;-85
2023/08/04 13:01:12;;;;;;;;;3.80;3.80;;;;;;;;5048480;28;8922;-87
2023/08/04 13:03:39;;;;;;;;;5.00;5.00;;;;;;;;5048708;28;8843;-88
2023/08/04 13:06:06;;;;;;;;;6.00;6.00;;;;;;;;5060805;28;8966;-88
2023/08/04 13:08:34;;;;;;;;;5.00;5.00;;;;;;;;5055529;28;8859;-86
2023/08/04 13:11:01;;;;;;;;;4.60;3.80;;;;;;;;5053822;28;8881;-86
2023/08/04 13:13:30;;;;;;;;;5.40;5.00;;;;;;;;5050836;28;8869;-90
2023/08/04 13:15:57;;;;;;;;;3.80;3.80;;;;;;;;5048689;28;8982;-87
2023/08/04 13:18:24;;;;;;;;;3.00;3.00;;;;;;;;5049284;28;8880;-88
2023/08/04 13:20:52;;;;;;;;;3.20;3.20;;;;;;;;5050339;28;9265;-88
2023/08/04 13:23:19;;;;;;;;;4.00;4.00;;;;;;;;5067668;28;8969;-87
2023/08/04 13:25:46;;;;;;;;;4.20;4.20;;;;;;;;5051833;28;8873;-81
2023/08/04 13:28:13;;;;;;;;;3.20;3.20;;;;;;;;5049053;28;8885;-87
2023/08/04 13:30:45;;;;;;;;;3.00;3.00;;;;;;;;5048223;28;8796;-86
2023/08/04 13:33:12;;;;;;;;;5.40;5.40;;;;;;;;5048949;28;8859;-84
2023/08/04 13:35:39;;;;;;;;;6.20;6.20;;;;;;;;5047994;28;8851;-87
2023/08/04 13:38:06;;;;;;;;;6.80;6.40;;;;;;;;5050207;28;8855;-88
2023/08/04 13:40:33;;;;;;;;;4.60;4.60;;;;;;;;5050381;28;8981;-84
2023/08/04 13:43:00;;;;;;;;;5.00;5.00;;;;;;;;5052247;28;8909;-87
2023/08/04 13:45:28;;;;;;;;;5.00;5.00;;;;;;;;5053004;28;8950;-88
2023/08/04 13:47:57;;;;;;;;;2.75;2.75;;;;;;;;5054333;28;9010;-85
2023/08/04 13:50:24;;;;;;;;;5.75;5.75;;;;;;;;5051611;28;8890;-86
2023/08/04 13:52:51;;;;;;;;;6.75;6.75;;;;;;;;5049447;28;9700;-88
2023/08/04 13:55:18;;;;;;;;;6.50;6.00;;;;;;;;5048690;28;8902;-88
2023/08/04 13:57:45;;;;;;;;;6.00;6.00;;;;;;;;5048798;28;8885;-89
2023/08/04 14:00:14;;;;;;;;;7.75;7.75;;;;;;;;5047500;28;8859;-88
2023/08/04 14:02:42;;;;;;;;;8.75;7.50;;;;;;;;5048205;28;8851;-89
2023/08/04 14:05:11;;;;;;;;;7.25;7.25;;;;;;;;5048133;28;8863;-90
2023/08/04 14:07:41;;;;;;;;;7.25;7.25;;;;;;;;5048658;28;8883;-90
2023/08/04 14:10:10;;;;;;;;;8.00;8.00;;;;;;;;5048313;28;8917;-91
2023/08/04 14:12:37;;;;;;;;;9.00;8.50;;;;;;;;5047888;28;8859;-90
2023/08/04 14:15:05;;;;;;;;;6.60;6.60;;;;;;;;5056349;28;8878;-88
2023/08/04 14:17:32;;;;;;;;;8.00;8.00;;;;;;;;5053586;28;8859;-89
2023/08/04 14:20:01;;;;;;;;;8.40;8.00;;;;;;;;5054290;28;8855;-84
2023/08/04 14:22:29;;;;;;;;;7.80;6.80;;;;;;;;5053448;28;8950;-87
2023/08/04 14:24:57;;;;;;;;;3.80;3.80;;;;;;;;5061791;28;8872;-89
2023/08/04 14:27:24;;;;;;;;;5.20;5.20;;;;;;;;5050898;28;8924;-87
2023/08/04 14:29:51;;;;;;;;;4.40;4.40;;;;;;;;5047901;28;8858;-88
2023/08/04 14:32:19;;;;;;;;;4.00;4.00;;;;;;;;5047558;28;8922;-88
2023/08/04 14:34:46;;;;;;;;;2.20;2.20;;;;;;;;5052616;28;8875;-88
2023/08/04 14:37:13;;;;;;;;;3.40;3.40;;;;;;;;5051438;28;8948;-89
2023/08/04 14:39:42;;;;;;;;;3.80;3.80;;;;;;;;5051879;28;8921;-90
2023/08/04 14:42:09;;;;;;;;;3.00;3.00;;;;;;;;5051041;28;8851;-89
2023/08/04 14:44:36;;;;;;;;;2.80;2.80;;;;;;;;5051616;28;8851;-84
2023/08/04 14:47:04;;;;;;;;;3.00;2.80;;;;;;;;5051738;28;8966;-89
2023/08/04 14:49:31;;;;;;;;;1.80;1.80;;;;;;;;5051101;28;8857;-89
2023/08/04 14:51:59;;;;;;;;;1.80;1.80;;;;;;;;5051186;28;8859;-87
2023/08/04 14:54:26;;;;;;;;;2.80;2.80;;;;;;;;5056374;28;8982;-87